createdAt,value
2023-08-07T00:00:25.335Z,93.07
2023-08-07T00:00:55.437Z,93.07
2023-08-07T00:01:25.345Z,93.07
2023-08-07T00:01:55.612Z,93.07
2023-08-07T00:02:25.408Z,93.18
2023-08-07T00:02:55.340Z,92.87
2023-08-07T00:03:25.387Z,92.87
2023-08-07T00:03:55.420Z,92.87
2023-08-07T00:04:25.279Z,92.77
2023-08-07T00:04:55.287Z,92.77
2023-08-07T00:05:25.300Z,92.87
2023-08-07T00:05:55.257Z,92.87
2023-08-07T00:06:25.270Z,92.87
2023-08-07T00:06:55.255Z,92.97
2023-08-07T00:07:25.285Z,92.82
2023-08-07T00:07:55.262Z,92.71
2023-08-07T00:08:25.258Z,93.02
2023-08-07T00:08:55.252Z,92.91
2023-08-07T00:09:25.295Z,92.91
2023-08-07T00:09:55.350Z,93.02
2023-08-07T00:10:25.469Z,92.82
2023-08-07T00:10:55.248Z,92.91
2023-08-07T00:11:25.213Z,93.02
2023-08-07T00:11:55.531Z,93.22
2023-08-07T00:12:25.223Z,93.32
2023-08-07T00:12:55.222Z,93.42
2023-08-07T00:13:25.232Z,93.62
2023-08-07T00:13:55.245Z,93.52
2023-08-07T00:14:25.230Z,93.38
2023-08-07T00:14:55.178Z,93.18
2023-08-07T00:15:25.179Z,93.07
2023-08-07T00:15:55.229Z,93.07
2023-08-07T00:16:25.204Z,92.87
2023-08-07T00:16:55.168Z,92.67
2023-08-07T00:17:25.282Z,92.67
2023-08-07T00:17:55.173Z,92.77
2023-08-07T00:18:25.179Z,92.87
2023-08-07T00:18:55.207Z,92.97
2023-08-07T00:19:25.130Z,92.87
2023-08-07T00:19:55.163Z,92.87
2023-08-07T00:20:25.123Z,92.97
2023-08-07T00:20:55.164Z,92.87
2023-08-07T00:21:25.134Z,92.77
2023-08-07T00:21:55.390Z,92.67
2023-08-07T00:22:25.129Z,92.77
2023-08-07T00:22:55.137Z,92.77
2023-08-07T00:23:25.185Z,92.67
2023-08-07T00:23:56.142Z,92.77
2023-08-07T00:24:25.261Z,92.77
2023-08-07T00:24:55.068Z,92.77
2023-08-07T00:25:25.107Z,92.97
2023-08-07T00:25:55.098Z,93.27
2023-08-07T00:26:25.068Z,93.27
2023-08-07T00:26:55.310Z,93.18
2023-08-07T00:27:25.043Z,93.18
2023-08-07T00:27:55.075Z,93.07
2023-08-07T00:28:25.037Z,93.07
2023-08-07T00:28:55.077Z,93.18
2023-08-07T00:29:25.651Z,93.18
2023-08-07T00:29:55.036Z,93.27
2023-08-07T00:30:25.037Z,92.97
2023-08-07T00:30:55.039Z,93.07
2023-08-07T00:31:25.134Z,93.18
2023-08-07T00:31:55.032Z,93.38
2023-08-07T00:32:25.035Z,93.58
2023-08-07T00:32:55.057Z,93.58
2023-08-07T00:33:25.009Z,93.58
2023-08-07T00:33:55.016Z,93.78
2023-08-07T00:34:25.068Z,93.68
2023-08-07T00:34:54.977Z,93.78
2023-08-07T00:35:25.019Z,93.78
2023-08-07T00:35:55.031Z,93.88
2023-08-07T00:36:24.955Z,93.58
2023-08-07T00:36:55.196Z,93.58
2023-08-07T00:37:24.952Z,93.68
2023-08-07T00:37:55.112Z,93.88
2023-08-07T00:38:25.166Z,93.88
2023-08-07T00:40:59.228Z,93.38
2023-08-07T00:41:04.813Z,93.38
2023-08-07T00:41:34.707Z,93.38
2023-08-07T00:42:04.695Z,93.38
2023-08-07T00:42:34.732Z,93.27
2023-08-07T00:43:04.671Z,93.27
2023-08-07T00:43:34.676Z,93.48
2023-08-07T00:44:04.783Z,93.88
2023-08-07T00:44:34.736Z,94.29
2023-08-07T00:45:04.644Z,94.70
2023-08-07T00:45:34.652Z,94.79
2023-08-07T00:46:04.672Z,94.49
2023-08-07T00:46:34.638Z,94.19
2023-08-07T00:47:04.805Z,94.19
2023-08-07T00:47:34.748Z,94.29
2023-08-07T00:48:04.656Z,94.39
2023-08-07T00:48:34.634Z,94.55
2023-08-07T00:49:04.629Z,94.65
2023-08-07T00:49:34.599Z,94.65
2023-08-07T00:50:04.604Z,94.75
2023-08-07T00:50:46.532Z,94.55
2023-08-07T00:51:04.626Z,94.24
2023-08-07T00:51:34.588Z,94.14
2023-08-07T00:52:07.646Z,94.35
2023-08-07T00:52:52.694Z,94.35
2023-08-07T00:53:04.583Z,94.45
2023-08-07T00:53:34.567Z,94.35
2023-08-07T00:54:04.572Z,94.35
2023-08-07T00:54:34.584Z,94.45
2023-08-07T00:55:04.567Z,94.55
2023-08-07T00:55:34.554Z,94.35
2023-08-07T00:56:04.625Z,94.14
2023-08-07T00:56:34.533Z,94.49
2023-08-07T00:57:04.550Z,94.79
2023-08-07T00:57:34.548Z,94.90
2023-08-07T00:58:04.516Z,94.79
2023-08-07T00:58:34.517Z,94.75
2023-08-07T00:59:04.553Z,94.59
2023-08-07T00:59:34.555Z,94.49
2023-08-07T01:00:04.529Z,94.39
2023-08-07T01:00:34.494Z,94.49
2023-08-07T01:01:04.612Z,94.39
2023-08-07T01:01:34.511Z,94.19
2023-08-07T01:02:04.544Z,94.09
2023-08-07T01:02:34.622Z,94.09
2023-08-07T01:03:04.566Z,94.09
2023-08-07T01:03:34.490Z,94.19
2023-08-07T01:04:04.489Z,94.39
2023-08-07T01:04:34.468Z,94.39
2023-08-07T01:05:04.462Z,94.49
2023-08-07T01:05:34.468Z,94.09
2023-08-07T01:06:04.603Z,93.99
2023-08-07T01:06:34.647Z,94.09
2023-08-07T01:07:04.445Z,93.99
2023-08-07T01:07:34.427Z,94.09
2023-08-07T01:08:04.435Z,94.19
2023-08-07T01:08:34.468Z,94.29
2023-08-07T01:09:04.430Z,94.49
2023-08-07T01:09:34.441Z,94.39
2023-08-07T01:10:04.409Z,94.29
2023-08-07T01:10:34.377Z,94.29
2023-08-07T01:11:04.433Z,94.29
2023-08-07T01:11:34.485Z,94.39
2023-08-07T01:12:04.385Z,94.29
2023-08-07T01:12:34.391Z,94.29
2023-08-07T01:13:04.417Z,94.29
2023-08-07T01:13:34.365Z,94.39
2023-08-07T01:14:04.352Z,94.39
2023-08-07T01:14:34.345Z,94.49
2023-08-07T01:15:04.396Z,94.59
2023-08-07T01:15:34.423Z,94.59
2023-08-07T01:16:04.375Z,94.49
2023-08-07T01:16:34.399Z,94.45
2023-08-07T01:17:04.337Z,93.84
2023-08-07T01:17:34.370Z,93.99
2023-08-07T01:18:04.340Z,94.19
2023-08-07T01:18:34.300Z,94.19
2023-08-07T01:19:04.337Z,93.88
2023-08-07T01:19:34.304Z,93.88
2023-08-07T01:20:04.437Z,93.99
2023-08-07T01:20:34.481Z,94.09
2023-08-07T01:21:04.294Z,94.19
2023-08-07T01:21:34.309Z,94.29
2023-08-07T01:22:04.286Z,94.29
2023-08-07T01:22:34.319Z,94.39
2023-08-07T01:23:04.249Z,94.29
2023-08-07T01:23:34.245Z,94.39
2023-08-07T01:24:04.254Z,93.78
2023-08-07T01:24:34.258Z,94.29
2023-08-07T01:25:04.255Z,94.59
2023-08-07T01:25:34.256Z,94.79
2023-08-07T01:26:04.242Z,95.00
2023-08-07T01:26:34.257Z,94.70
2023-08-07T01:27:04.275Z,94.49
2023-08-07T01:27:34.222Z,94.70
2023-08-07T01:28:04.247Z,94.90
2023-08-07T01:28:34.206Z,95.00
2023-08-07T01:29:04.193Z,95.20
2023-08-07T01:29:34.279Z,95.20
2023-08-07T01:30:04.310Z,95.10
2023-08-07T01:30:34.212Z,95.10
2023-08-07T01:31:04.197Z,95.10
2023-08-07T01:31:34.205Z,95.00
2023-08-07T01:32:04.254Z,95.00
2023-08-07T01:32:34.192Z,95.00
2023-08-07T01:33:04.195Z,95.00
2023-08-07T01:33:34.213Z,94.70
2023-08-07T01:34:04.374Z,94.49
2023-08-07T01:34:34.324Z,94.59
2023-08-07T01:35:04.142Z,94.49
2023-08-07T01:35:34.140Z,94.70
2023-08-07T01:36:04.148Z,94.23
2023-08-07T01:36:34.159Z,94.23
2023-08-07T01:37:04.168Z,94.29
2023-08-07T01:37:34.185Z,94.64
2023-08-07T01:38:04.144Z,94.74
2023-08-07T01:38:34.155Z,94.74
2023-08-07T01:39:04.121Z,94.74
2023-08-07T01:39:34.087Z,94.84
2023-08-07T01:40:04.154Z,94.84
2023-08-07T01:40:36.104Z,94.84
2023-08-07T01:41:04.165Z,94.84
2023-08-07T01:41:34.114Z,94.64
2023-08-07T01:42:04.143Z,94.43
2023-08-07T01:42:34.066Z,94.74
2023-08-07T01:43:04.112Z,94.74
2023-08-07T01:43:34.155Z,94.74
2023-08-07T01:44:04.071Z,94.64
2023-08-07T01:44:34.098Z,94.74
2023-08-07T01:45:04.043Z,94.23
2023-08-07T01:45:34.044Z,93.73
2023-08-07T01:46:04.111Z,93.62
2023-08-07T01:46:34.048Z,94.13
2023-08-07T01:47:04.702Z,94.34
2023-08-07T01:47:34.154Z,94.43
2023-08-07T01:48:04.150Z,94.34
2023-08-07T01:48:34.179Z,93.83
2023-08-07T01:49:04.009Z,93.73
2023-08-07T01:49:34.051Z,94.03
2023-08-07T01:50:03.998Z,94.23
2023-08-07T01:50:34.000Z,94.54
2023-08-07T01:51:03.998Z,94.23
2023-08-07T01:51:34.673Z,94.13
2023-08-07T01:52:03.950Z,94.13
2023-08-07T01:52:33.945Z,94.03
2023-08-07T01:53:03.961Z,93.83
2023-08-07T01:53:33.963Z,93.93
2023-08-07T01:54:03.948Z,94.03
2023-08-07T01:54:34.680Z,94.13
2023-08-07T01:55:03.953Z,94.03
2023-08-07T01:55:33.955Z,93.93
2023-08-07T01:56:04.005Z,93.93
2023-08-07T01:56:33.953Z,93.73
2023-08-07T01:57:03.956Z,93.73
2023-08-07T01:57:33.953Z,93.73
2023-08-07T01:58:03.953Z,93.93
2023-08-07T01:58:33.917Z,94.03
2023-08-07T01:59:03.876Z,93.73
2023-08-07T01:59:33.969Z,93.73
2023-08-07T02:00:03.898Z,93.83
2023-08-07T02:00:33.887Z,94.13
2023-08-07T02:01:03.914Z,94.23
2023-08-07T02:01:33.980Z,94.03
2023-08-07T02:02:04.072Z,94.18
2023-08-07T02:02:34.206Z,94.27
2023-08-07T02:03:03.929Z,94.27
2023-08-07T02:03:33.985Z,94.43
2023-08-07T02:04:03.852Z,94.38
2023-08-07T02:04:33.902Z,94.18
2023-08-07T02:05:03.842Z,94.18
2023-08-07T02:05:33.831Z,94.18
2023-08-07T02:06:03.823Z,94.07
2023-08-07T02:06:33.821Z,94.07
2023-08-07T02:07:03.845Z,94.07
2023-08-07T02:07:33.825Z,94.18
2023-08-07T02:08:03.837Z,94.07
2023-08-07T02:08:33.805Z,93.37
2023-08-07T02:09:03.775Z,93.46
2023-08-07T02:09:33.821Z,93.67
2023-08-07T02:10:03.789Z,93.67
2023-08-07T02:10:33.776Z,93.46
2023-08-07T02:11:03.818Z,93.67
2023-08-07T02:11:33.763Z,93.77
2023-08-07T02:12:03.772Z,93.97
2023-08-07T02:12:33.763Z,94.07
2023-08-07T02:13:03.754Z,93.67
2023-08-07T02:13:33.748Z,93.67
2023-08-07T02:14:03.749Z,93.77
2023-08-07T02:14:33.728Z,93.77
2023-08-07T02:15:03.783Z,93.97
2023-08-07T02:15:33.715Z,94.27
2023-08-07T02:16:03.875Z,94.07
2023-08-07T02:16:33.930Z,93.77
2023-08-07T02:17:03.734Z,93.67
2023-08-07T02:17:33.817Z,93.67
2023-08-07T02:18:03.705Z,93.67
2023-08-07T02:18:33.682Z,93.97
2023-08-07T02:19:03.687Z,93.67
2023-08-07T02:19:33.682Z,93.67
2023-08-07T02:20:03.671Z,93.67
2023-08-07T02:20:33.677Z,93.77
2023-08-07T02:21:03.665Z,93.77
2023-08-07T02:21:33.722Z,93.77
2023-08-07T02:22:03.686Z,93.87
2023-08-07T02:22:33.647Z,94.07
2023-08-07T02:23:03.666Z,94.38
2023-08-07T02:23:33.637Z,93.77
2023-08-07T02:24:03.642Z,93.57
2023-08-07T02:24:33.651Z,93.67
2023-08-07T02:25:03.673Z,93.87
2023-08-07T02:25:33.638Z,94.07
2023-08-07T02:26:03.613Z,93.77
2023-08-07T02:26:33.594Z,93.67
2023-08-07T02:27:03.598Z,93.87
2023-08-07T02:27:33.631Z,93.77
2023-08-07T02:28:03.591Z,93.37
2023-08-07T02:28:33.656Z,93.41
2023-08-07T02:29:03.597Z,93.41
2023-08-07T02:29:33.691Z,93.61
2023-08-07T02:30:03.753Z,93.51
2023-08-07T02:30:33.785Z,93.91
2023-08-07T02:31:03.573Z,93.71
2023-08-07T02:31:33.625Z,93.81
2023-08-07T02:32:03.620Z,93.91
2023-08-07T02:32:33.646Z,94.02
2023-08-07T02:33:03.581Z,94.02
2023-08-07T02:33:33.543Z,93.91
2023-08-07T02:34:03.539Z,94.12
2023-08-07T02:34:33.546Z,93.91
2023-08-07T02:35:03.582Z,93.51
2023-08-07T02:35:33.522Z,93.61
2023-08-07T02:36:03.529Z,93.81
2023-08-07T02:36:33.524Z,93.91
2023-08-07T02:37:04.179Z,93.21
2023-08-07T02:37:33.526Z,93.21
2023-08-07T02:38:03.489Z,93.51
2023-08-07T02:38:34.102Z,93.81
2023-08-07T02:39:03.496Z,93.91
2023-08-07T02:39:33.461Z,93.71
2023-08-07T02:40:03.485Z,94.12
2023-08-07T02:40:33.539Z,94.22
2023-08-07T02:41:03.474Z,93.81
2023-08-07T02:41:33.459Z,93.91
2023-08-07T02:42:03.444Z,93.61
2023-08-07T02:42:33.466Z,93.61
2023-08-07T02:43:03.485Z,93.81
2023-08-07T02:43:33.444Z,93.71
2023-08-07T02:44:03.541Z,93.81
2023-08-07T02:44:33.619Z,93.61
2023-08-07T02:45:03.419Z,93.41
2023-08-07T02:45:33.548Z,93.71
2023-08-07T02:46:03.417Z,93.71
2023-08-07T02:46:33.430Z,93.71
2023-08-07T02:47:03.410Z,93.30
2023-08-07T02:47:33.457Z,93.61
2023-08-07T02:48:03.411Z,93.71
2023-08-07T02:48:33.383Z,93.71
2023-08-07T02:49:03.396Z,93.71
2023-08-07T02:49:33.367Z,93.61
2023-08-07T02:50:03.375Z,93.61
2023-08-07T02:50:33.362Z,93.41
2023-08-07T02:51:03.369Z,93.61
2023-08-07T02:51:33.346Z,93.10
2023-08-07T02:52:03.348Z,93.55
2023-08-07T02:52:33.366Z,93.76
2023-08-07T02:53:03.324Z,93.65
2023-08-07T02:53:33.333Z,93.25
2023-08-07T02:54:03.340Z,93.45
2023-08-07T02:54:33.302Z,93.65
2023-08-07T02:55:03.543Z,93.65
2023-08-07T02:55:33.532Z,92.84
2023-08-07T02:56:03.349Z,92.94
2023-08-07T02:56:33.350Z,93.05
2023-08-07T02:57:03.297Z,93.35
2023-08-07T02:57:33.281Z,92.94
2023-08-07T02:58:03.386Z,93.05
2023-08-07T02:58:33.489Z,93.10
2023-08-07T02:59:03.290Z,93.35
2023-08-07T02:59:33.307Z,93.35
2023-08-07T03:00:03.278Z,93.55
2023-08-07T03:00:33.308Z,93.35
2023-08-07T03:01:03.281Z,93.35
2023-08-07T03:01:33.322Z,93.45
2023-08-07T03:02:03.236Z,93.45
2023-08-07T03:02:33.237Z,93.55
2023-08-07T03:03:03.318Z,93.55
2023-08-07T03:03:33.224Z,93.65
2023-08-07T03:04:03.212Z,93.65
2023-08-07T03:04:33.231Z,93.76
2023-08-07T03:05:03.234Z,93.35
2023-08-07T03:05:33.241Z,93.25
2023-08-07T03:06:03.234Z,93.15
2023-08-07T03:06:33.231Z,92.94
2023-08-07T03:07:03.228Z,93.05
2023-08-07T03:07:33.201Z,93.05
2023-08-07T03:08:03.163Z,93.10
2023-08-07T03:08:33.251Z,93.10
2023-08-07T03:09:03.169Z,93.00
2023-08-07T03:09:33.180Z,92.80
2023-08-07T03:10:03.163Z,92.80
2023-08-07T03:10:33.163Z,92.80
2023-08-07T03:11:03.182Z,92.54
2023-08-07T03:11:33.163Z,92.70
2023-08-07T03:12:03.291Z,93.00
2023-08-07T03:12:33.327Z,92.90
2023-08-07T03:13:03.706Z,92.90
2023-08-07T03:13:33.143Z,92.80
2023-08-07T03:14:03.112Z,92.84
2023-08-07T03:14:33.136Z,92.94
2023-08-07T03:15:03.117Z,93.25
2023-08-07T03:15:33.337Z,93.35
2023-08-07T03:16:03.198Z,93.35
2023-08-07T03:16:33.135Z,93.25
2023-08-07T03:17:03.116Z,93.25
2023-08-07T03:17:33.119Z,93.05
2023-08-07T03:18:03.119Z,93.05
2023-08-07T03:18:33.081Z,92.94
2023-08-07T03:19:03.087Z,93.05
2023-08-07T03:19:33.081Z,92.94
2023-08-07T03:20:03.105Z,93.05
2023-08-07T03:20:33.111Z,93.25
2023-08-07T03:21:02.983Z,93.25
2023-08-07T03:21:33.044Z,93.55
2023-08-07T03:22:03.048Z,92.94
2023-08-07T03:22:32.970Z,93.15
2023-08-07T03:23:02.963Z,93.45
2023-08-07T03:23:32.963Z,93.45
2023-08-07T03:24:02.953Z,93.25
2023-08-07T03:24:32.983Z,93.25
2023-08-07T03:25:03.007Z,93.15
2023-08-07T03:25:32.990Z,93.05
2023-08-07T03:26:17.389Z,93.15
2023-08-07T03:26:33.243Z,93.35
2023-08-07T03:27:02.999Z,93.55
2023-08-07T03:27:32.925Z,93.55
2023-08-07T03:28:02.904Z,93.45
2023-08-07T03:28:32.957Z,93.15
2023-08-07T03:29:02.943Z,93.25
2023-08-07T03:29:33.011Z,93.25
2023-08-07T03:30:02.922Z,93.35
2023-08-07T03:30:32.930Z,93.25
2023-08-07T03:31:02.980Z,93.25
2023-08-07T03:31:32.976Z,93.25
2023-08-07T03:32:02.931Z,93.35
2023-08-07T03:32:32.916Z,93.45
2023-08-07T03:33:02.906Z,93.45
2023-08-07T03:33:32.857Z,93.45
2023-08-07T03:34:02.903Z,93.45
2023-08-07T03:34:32.835Z,93.45
2023-08-07T03:35:02.948Z,93.45
2023-08-07T03:35:32.853Z,93.35
2023-08-07T03:36:02.849Z,93.45
2023-08-07T03:36:32.814Z,93.55
2023-08-07T03:37:02.896Z,93.55
2023-08-07T03:37:32.817Z,93.45
2023-08-07T03:38:02.825Z,93.45
2023-08-07T03:38:32.828Z,93.45
2023-08-07T03:39:02.851Z,93.45
2023-08-07T03:39:32.827Z,93.35
2023-08-07T03:40:02.919Z,93.05
2023-08-07T03:40:32.969Z,93.35
2023-08-07T03:41:02.789Z,93.65
2023-08-07T03:41:32.801Z,93.55
2023-08-07T03:42:02.774Z,93.76
2023-08-07T03:42:32.856Z,94.26
2023-08-07T03:43:02.811Z,94.17
2023-08-07T03:43:32.836Z,93.86
2023-08-07T03:44:02.801Z,93.65
2023-08-07T03:44:32.757Z,93.65
2023-08-07T03:45:02.728Z,93.65
2023-08-07T03:45:32.818Z,93.65
2023-08-07T03:46:03.903Z,93.65
2023-08-07T03:46:32.717Z,93.86
2023-08-07T03:47:02.710Z,94.00
2023-08-07T03:47:32.743Z,93.80
2023-08-07T03:48:02.716Z,93.76
2023-08-07T03:48:32.836Z,93.86
2023-08-07T03:49:02.780Z,93.86
2023-08-07T03:49:32.673Z,93.76
2023-08-07T03:50:02.710Z,93.80
2023-08-07T03:50:32.723Z,93.90
2023-08-07T03:51:02.666Z,93.80
2023-08-07T03:51:32.681Z,93.55
2023-08-07T03:52:02.679Z,93.65
2023-08-07T03:52:32.654Z,93.65
2023-08-07T03:53:02.721Z,93.65
2023-08-07T03:53:32.684Z,93.65
2023-08-07T03:54:02.792Z,93.65
2023-08-07T03:54:32.884Z,93.65
2023-08-07T03:55:02.626Z,93.45
2023-08-07T03:55:32.707Z,93.45
2023-08-07T03:56:02.611Z,93.35
2023-08-07T03:56:32.683Z,93.15
2023-08-07T03:57:03.239Z,93.35
2023-08-07T03:57:32.615Z,93.45
2023-08-07T03:58:02.612Z,93.45
2023-08-07T03:58:32.601Z,93.35
2023-08-07T03:59:02.589Z,93.25
2023-08-07T03:59:32.560Z,93.15
2023-08-07T04:00:02.611Z,93.15
2023-08-07T04:00:32.563Z,93.25
2023-08-07T04:01:02.667Z,93.35
2023-08-07T04:01:32.590Z,93.35
2023-08-07T04:02:02.642Z,93.35
2023-08-07T04:02:32.617Z,93.25
2023-08-07T04:03:03.232Z,93.45
2023-08-07T04:03:32.731Z,93.55
2023-08-07T04:04:02.575Z,93.15
2023-08-07T04:04:32.541Z,93.05
2023-08-07T04:05:02.655Z,92.74
2023-08-07T04:05:32.591Z,93.25
2023-08-07T04:06:02.541Z,93.25
2023-08-07T04:06:32.578Z,93.35
2023-08-07T04:07:02.510Z,93.65
2023-08-07T04:07:32.510Z,93.76
2023-08-07T04:08:02.768Z,93.76
2023-08-07T04:08:32.677Z,93.76
2023-08-07T04:09:02.513Z,93.55
2023-08-07T04:09:32.510Z,93.96
2023-08-07T04:10:02.525Z,93.76
2023-08-07T04:10:32.463Z,93.65
2023-08-07T04:11:02.524Z,93.45
2023-08-07T04:11:32.485Z,93.45
2023-08-07T04:12:02.466Z,93.45
2023-08-07T04:12:32.433Z,93.55
2023-08-07T04:13:02.471Z,93.65
2023-08-07T04:13:32.457Z,93.76
2023-08-07T04:14:02.422Z,93.65
2023-08-07T04:14:32.464Z,93.45
2023-08-07T04:15:02.776Z,93.25
2023-08-07T04:15:32.437Z,93.55
2023-08-07T04:16:02.407Z,93.65
2023-08-07T04:16:32.441Z,93.76
2023-08-07T04:17:03.206Z,93.65
2023-08-07T04:17:32.510Z,93.45
2023-08-07T04:18:02.465Z,93.55
2023-08-07T04:18:32.409Z,93.55
2023-08-07T04:19:02.395Z,93.45
2023-08-07T04:19:32.386Z,93.15
2023-08-07T04:20:02.378Z,93.05
2023-08-07T04:20:32.449Z,93.05
2023-08-07T04:21:02.385Z,93.35
2023-08-07T04:21:32.367Z,93.45
2023-08-07T04:22:03.207Z,93.45
2023-08-07T04:22:32.620Z,93.15
2023-08-07T04:23:02.418Z,93.25
2023-08-07T04:23:32.402Z,93.25
2023-08-07T04:24:02.350Z,93.25
2023-08-07T04:24:32.385Z,93.45
2023-08-07T04:25:02.436Z,92.84
2023-08-07T04:25:32.333Z,93.05
2023-08-07T04:26:02.398Z,93.35
2023-08-07T04:26:32.373Z,93.55
2023-08-07T04:27:02.330Z,93.55
2023-08-07T04:27:32.337Z,93.35
2023-08-07T04:28:02.317Z,93.45
2023-08-07T04:28:32.314Z,93.45
2023-08-07T04:29:02.350Z,93.45
2023-08-07T04:29:33.213Z,93.25
2023-08-07T04:30:02.298Z,93.35
2023-08-07T04:30:32.292Z,93.45
2023-08-07T04:31:02.357Z,93.15
2023-08-07T04:31:32.316Z,93.45
2023-08-07T04:32:02.240Z,93.65
2023-08-07T04:32:32.311Z,93.55
2023-08-07T04:33:02.256Z,93.45
2023-08-07T04:33:32.233Z,93.45
2023-08-07T04:34:02.270Z,93.35
2023-08-07T04:34:32.257Z,93.55
2023-08-07T04:35:02.210Z,93.35
2023-08-07T04:35:32.202Z,93.25
2023-08-07T04:36:02.377Z,93.25
2023-08-07T04:36:32.378Z,93.15
2023-08-07T04:37:02.181Z,93.25
2023-08-07T04:37:32.196Z,93.65
2023-08-07T04:38:02.201Z,93.65
2023-08-07T04:38:32.269Z,93.25
2023-08-07T04:39:02.166Z,93.25
2023-08-07T04:39:32.400Z,93.25
2023-08-07T04:40:02.208Z,93.25
2023-08-07T04:40:32.207Z,93.35
2023-08-07T04:41:02.159Z,92.94
2023-08-07T04:41:33.094Z,93.05
2023-08-07T04:42:02.211Z,93.25
2023-08-07T04:42:32.183Z,93.45
2023-08-07T04:43:02.171Z,93.55
2023-08-07T04:43:32.168Z,93.05
2023-08-07T04:44:02.143Z,93.25
2023-08-07T04:44:32.169Z,93.55
2023-08-07T04:45:02.095Z,93.45
2023-08-07T04:45:32.109Z,93.35
2023-08-07T04:46:02.136Z,93.45
2023-08-07T04:46:32.118Z,93.05
2023-08-07T04:47:02.125Z,93.05
2023-08-07T04:47:32.801Z,93.15
2023-08-07T04:48:02.108Z,93.15
2023-08-07T04:48:32.127Z,93.35
2023-08-07T04:49:02.101Z,93.15
2023-08-07T04:49:32.074Z,92.94
2023-08-07T04:50:02.245Z,92.94
2023-08-07T04:50:32.336Z,92.74
2023-08-07T04:51:02.071Z,92.74
2023-08-07T04:51:32.049Z,93.10
2023-08-07T04:52:12.814Z,92.94
2023-08-07T04:52:32.054Z,93.15
2023-08-07T04:53:02.095Z,93.30
2023-08-07T04:53:32.054Z,93.41
2023-08-07T04:54:02.010Z,93.21
2023-08-07T04:54:32.010Z,93.30
2023-08-07T04:55:02.017Z,93.21
2023-08-07T04:55:32.001Z,93.21
2023-08-07T04:56:01.978Z,93.21
2023-08-07T04:56:31.977Z,93.10
2023-08-07T04:57:02.000Z,93.10
2023-08-07T04:57:31.993Z,93.10
2023-08-07T04:58:01.987Z,93.00
2023-08-07T04:58:31.974Z,92.90
2023-08-07T04:59:02.012Z,93.10
2023-08-07T04:59:32.009Z,93.10
2023-08-07T05:00:01.960Z,93.10
2023-08-07T05:00:32.018Z,93.00
2023-08-07T05:01:01.977Z,92.90
2023-08-07T05:01:31.959Z,93.00
2023-08-07T05:02:01.980Z,93.10
2023-08-07T05:02:32.133Z,93.10
2023-08-07T05:03:02.084Z,92.90
2023-08-07T05:03:32.043Z,93.00
2023-08-07T05:04:02.155Z,92.80
2023-08-07T05:04:32.120Z,92.49
2023-08-07T05:05:01.916Z,92.49
2023-08-07T05:05:32.002Z,92.49
2023-08-07T05:06:01.978Z,92.29
2023-08-07T05:06:31.879Z,92.29
2023-08-07T05:07:01.908Z,92.49
2023-08-07T05:07:31.896Z,92.70
2023-08-07T05:08:01.886Z,92.90
2023-08-07T05:08:31.870Z,92.80
2023-08-07T05:09:01.911Z,92.90
2023-08-07T05:09:31.876Z,92.80
2023-08-07T05:10:01.900Z,92.09
2023-08-07T05:10:31.913Z,92.19
2023-08-07T05:11:01.897Z,92.49
2023-08-07T05:11:31.858Z,92.60
2023-08-07T05:12:01.863Z,92.70
2023-08-07T05:12:31.851Z,92.60
2023-08-07T05:13:01.881Z,92.49
2023-08-07T05:13:31.852Z,92.40
2023-08-07T05:14:02.060Z,92.40
2023-08-07T05:14:31.809Z,92.40
2023-08-07T05:15:01.841Z,92.80
2023-08-07T05:15:31.942Z,92.49
2023-08-07T05:16:01.837Z,92.40
2023-08-07T05:16:31.877Z,92.60
2023-08-07T05:17:01.800Z,92.80
2023-08-07T05:17:31.802Z,92.90
2023-08-07T05:18:01.930Z,92.90
2023-08-07T05:18:32.024Z,92.80
2023-08-07T05:19:01.795Z,92.90
2023-08-07T05:19:31.835Z,93.00
2023-08-07T05:20:01.790Z,92.90
2023-08-07T05:20:31.749Z,92.49
2023-08-07T05:21:01.792Z,92.40
2023-08-07T05:21:31.777Z,92.49
2023-08-07T05:22:01.731Z,92.29
2023-08-07T05:22:31.740Z,92.29
2023-08-07T05:23:01.715Z,92.40
2023-08-07T05:23:31.716Z,92.40
2023-08-07T05:24:01.703Z,92.29
2023-08-07T05:24:31.736Z,92.09
2023-08-07T05:25:01.963Z,92.19
2023-08-07T05:25:31.757Z,92.19
2023-08-07T05:26:01.811Z,92.90
2023-08-07T05:26:31.686Z,92.90
2023-08-07T05:27:02.308Z,92.60
2023-08-07T05:27:31.701Z,92.60
2023-08-07T05:28:01.665Z,92.90
2023-08-07T05:28:31.684Z,92.49
2023-08-07T05:29:01.678Z,92.60
2023-08-07T05:29:31.775Z,93.10
2023-08-07T05:30:01.657Z,93.21
2023-08-07T05:30:31.697Z,93.30
2023-08-07T05:31:01.706Z,93.30
2023-08-07T05:31:31.700Z,93.41
2023-08-07T05:32:01.747Z,93.61
2023-08-07T05:32:31.796Z,93.41
2023-08-07T05:33:01.933Z,93.51
2023-08-07T05:33:31.595Z,93.61
2023-08-07T05:34:01.727Z,93.61
2023-08-07T05:34:31.586Z,93.61
2023-08-07T05:35:01.655Z,93.41
2023-08-07T05:35:31.604Z,93.41
2023-08-07T05:36:01.607Z,93.51
2023-08-07T05:36:31.820Z,93.51
2023-08-07T05:37:02.604Z,93.30
2023-08-07T05:37:31.598Z,93.21
2023-08-07T05:38:01.566Z,93.41
2023-08-07T05:38:31.847Z,93.81
2023-08-07T05:39:01.579Z,93.61
2023-08-07T05:39:31.536Z,93.61
2023-08-07T05:40:02.255Z,93.10
2023-08-07T05:40:32.249Z,93.10
2023-08-07T05:41:01.560Z,92.90
2023-08-07T05:41:31.554Z,93.21
2023-08-07T05:42:35.380Z,93.10
2023-08-07T05:42:40.779Z,93.51
2023-08-07T05:43:10.811Z,93.61
2023-08-07T05:43:40.777Z,93.71
2023-08-07T05:44:10.730Z,93.81
2023-08-07T05:44:40.785Z,93.30
2023-08-07T05:45:10.729Z,93.21
2023-08-07T05:45:40.743Z,93.21
2023-08-07T05:46:10.956Z,92.90
2023-08-07T05:46:40.975Z,93.10
2023-08-07T05:47:10.772Z,93.21
2023-08-07T05:47:40.747Z,93.00
2023-08-07T05:48:10.716Z,93.00
2023-08-07T05:48:40.750Z,93.00
2023-08-07T05:49:10.694Z,93.21
2023-08-07T05:49:40.739Z,92.90
2023-08-07T05:50:10.704Z,93.10
2023-08-07T05:50:40.710Z,93.41
2023-08-07T05:51:10.709Z,93.41
2023-08-07T05:51:40.737Z,93.41
2023-08-07T05:52:10.813Z,93.61
2023-08-07T05:52:40.733Z,93.61
2023-08-07T05:53:10.696Z,93.61
2023-08-07T05:53:40.689Z,93.41
2023-08-07T05:54:11.635Z,93.51
2023-08-07T05:54:40.669Z,93.57
2023-08-07T05:55:10.665Z,93.57
2023-08-07T05:55:40.632Z,93.37
2023-08-07T05:56:10.691Z,93.06
2023-08-07T05:56:40.667Z,92.86
2023-08-07T05:57:10.609Z,92.65
2023-08-07T05:57:40.599Z,92.25
2023-08-07T05:58:10.635Z,92.25
2023-08-07T05:58:40.578Z,92.45
2023-08-07T05:59:10.616Z,92.76
2023-08-07T05:59:40.638Z,92.86
2023-08-07T06:00:10.737Z,92.76
2023-08-07T06:00:40.837Z,92.45
2023-08-07T06:01:10.620Z,91.94
2023-08-07T06:01:40.611Z,91.94
2023-08-07T06:02:10.684Z,92.05
2023-08-07T06:02:40.599Z,92.45
2023-08-07T06:03:11.233Z,92.45
2023-08-07T06:03:40.631Z,92.65
2023-08-07T06:04:10.749Z,92.86
2023-08-07T06:04:40.551Z,92.86
2023-08-07T06:05:10.562Z,92.55
2023-08-07T06:05:40.510Z,92.14
2023-08-07T06:06:10.529Z,92.25
2023-08-07T06:06:40.521Z,92.55
2023-08-07T06:07:10.526Z,92.65
2023-08-07T06:07:40.576Z,92.65
2023-08-07T06:08:10.488Z,92.65
2023-08-07T06:08:40.505Z,92.86
2023-08-07T06:09:10.557Z,92.65
2023-08-07T06:09:40.498Z,92.65
2023-08-07T06:10:10.499Z,92.65
2023-08-07T06:10:40.473Z,91.74
2023-08-07T06:11:10.470Z,91.85
2023-08-07T06:11:40.457Z,91.24
2023-08-07T06:12:10.458Z,91.64
2023-08-07T06:12:40.509Z,91.74
2023-08-07T06:13:14.577Z,91.85
2023-08-07T06:13:40.450Z,92.05
2023-08-07T06:14:10.556Z,91.64
2023-08-07T06:14:40.639Z,91.74
2023-08-07T06:15:10.446Z,91.54
2023-08-07T06:15:40.420Z,91.44
2023-08-07T06:16:10.455Z,91.74
2023-08-07T06:16:40.445Z,92.05
2023-08-07T06:17:10.440Z,91.94
2023-08-07T06:17:40.570Z,91.74
2023-08-07T06:18:10.469Z,91.85
2023-08-07T06:18:40.444Z,91.64
2023-08-07T06:19:21.109Z,91.24
2023-08-07T06:19:40.436Z,91.44
2023-08-07T06:20:12.614Z,91.54
2023-08-07T06:20:40.365Z,91.44
2023-08-07T06:21:10.426Z,91.03
2023-08-07T06:21:40.355Z,91.34
2023-08-07T06:22:10.369Z,91.13
2023-08-07T06:22:40.532Z,91.39
2023-08-07T06:23:10.337Z,91.60
2023-08-07T06:23:40.441Z,91.50
2023-08-07T06:24:10.375Z,91.30
2023-08-07T06:24:40.352Z,91.60
2023-08-07T06:25:10.315Z,91.80
2023-08-07T06:25:40.302Z,91.19
2023-08-07T06:26:10.368Z,90.99
2023-08-07T06:26:40.333Z,90.99
2023-08-07T06:27:10.294Z,91.19
2023-08-07T06:27:40.346Z,90.44
2023-08-07T06:28:10.426Z,90.24